Time;durP1;ratioP1;P1;durP2;ratioP2;P2;SDS_P1;SDS_P2;PMS_P1;PMS_P2;Temp;Humidity;BMP_temperature;BMP_pressure;BME280_temperature;BME280_humidity;BME280_pressure;Samples;Min_cycle;Max_cycle;Signal;HPM_P1;HPM_P2
2023/10/27 00:00:37;;;;;;;4.60;1.08;;;;;;;17.39;48.02;92922.59;5016929;28;20623;-78
2023/10/27 00:03:03;;;;;;;2.70;1.10;;;;;;;17.36;48.08;92905.28;5015871;28;20045;-79
2023/10/27 00:05:29;;;;;;;2.95;1.27;;;;;;;17.42;47.56;92911.09;5014558;28;20452;-77
2023/10/27 00:07:54;;;;;;;5.00;1.92;;;;;;;17.53;47.33;92907.31;5017515;28;20048;-77
2023/10/27 00:10:20;;;;;;;4.40;1.40;;;;;;;17.37;47.35;92911.44;5015701;28;20025;-77
2023/10/27 00:12:45;;;;;;;4.40;1.05;;;;;;;17.47;47.44;92926.84;5015580;28;20041;-76
2023/10/27 00:15:11;;;;;;;3.60;1.70;;;;;;;17.43;47.64;92926.84;5013843;28;20037;-76
2023/10/27 00:17:36;;;;;;;6.85;1.63;;;;;;;17.48;46.88;92933.78;5014547;28;20128;-77
2023/10/27 00:20:03;;;;;;;4.25;1.58;;;;;;;17.51;46.79;92938.38;5014004;28;20031;-77
2023/10/27 00:22:30;;;;;;;5.50;1.30;;;;;;;17.49;46.82;92935.31;5017352;28;20029;-77
2023/10/27 00:24:55;;;;;;;3.92;2.15;;;;;;;17.26;50.08;92911.38;5014623;28;20077;-77
2023/10/27 00:27:20;;;;;;;7.45;2.28;;;;;;;16.68;51.84;92903.31;5017953;28;20472;-77
2023/10/27 00:29:46;;;;;;;8.18;2.40;;;;;;;16.21;53.84;92898.72;4996726;28;20039;-77
2023/10/27 00:32:11;;;;;;;9.55;2.30;;;;;;;15.81;55.38;92910.97;5014906;28;20038;-78
2023/10/27 00:34:37;;;;;;;6.70;2.13;;;;;;;16.14;55.65;92934.28;4998916;28;20491;-77
2023/10/27 00:37:03;;;;;;;15.88;3.13;;;;;;;16.25;55.44;92919.06;5015073;28;20049;-77
2023/10/27 00:39:28;;;;;;;6.55;2.35;;;;;;;16.14;55.33;92912.81;5016182;28;21054;-78
2023/10/27 00:41:54;;;;;;;8.15;2.42;;;;;;;16.24;55.07;92922.09;5015498;28;20037;-77
2023/10/27 00:44:19;;;;;;;11.40;2.40;;;;;;;16.26;55.09;92904.50;5015873;28;20034;-77
2023/10/27 00:46:45;;;;;;;8.63;2.83;;;;;;;16.56;54.26;92930.47;5012659;28;20555;-77
2023/10/27 00:49:11;;;;;;;6.53;2.08;;;;;;;16.45;54.83;92916.19;5017168;28;20064;-77
2023/10/27 00:51:38;;;;;;;9.65;2.83;;;;;;;15.92;56.00;92899.56;5014613;28;20128;-77
2023/10/27 00:54:08;;;;;;;4.75;2.20;;;;;;;16.00;56.89;92920.72;5014042;28;20096;-78
2023/10/27 00:56:35;;;;;;;8.15;2.20;;;;;;;16.29;55.47;92898.41;5016079;28;20044;-77
2023/10/27 00:59:01;;;;;;;10.60;2.55;;;;;;;16.40;54.63;92895.06;4995649;28;20260;-77
2023/10/27 01:01:28;;;;;;;6.80;2.08;;;;;;;16.61;54.08;92912.13;5015771;28;20029;-77
2023/10/27 01:03:55;;;;;;;4.88;1.98;;;;;;;16.53;54.31;92913.19;5014324;28;20109;-77
2023/10/27 01:06:22;;;;;;;6.78;2.03;;;;;;;16.69;53.63;92911.00;5013474;28;20073;-77
2023/10/27 01:08:48;;;;;;;8.60;2.67;;;;;;;16.74;54.18;92944.81;4999966;28;20371;-77
2023/10/27 01:11:14;;;;;;;17.10;2.38;;;;;;;16.79;53.96;92944.47;5017039;28;20933;-78
2023/10/27 01:13:40;;;;;;;9.00;2.15;;;;;;;16.50;54.86;92924.66;5020752;28;20033;-77
2023/10/27 01:16:05;;;;;;;9.48;2.58;;;;;;;16.37;55.47;92941.44;4995718;28;20046;-77
2023/10/27 01:18:31;;;;;;;5.32;2.15;;;;;;;16.48;54.89;92929.63;5000991;28;20030;-77
2023/10/27 01:20:56;;;;;;;6.28;2.58;;;;;;;16.51;55.22;92946.91;4997934;28;20157;-77
2023/10/27 01:23:21;;;;;;;8.60;2.30;;;;;;;16.41;54.94;92926.13;4999286;28;20034;-76
2023/10/27 01:25:47;;;;;;;7.65;2.17;;;;;;;16.58;54.73;92952.34;4999557;28;20456;-77
2023/10/27 01:28:12;;;;;;;7.43;2.67;;;;;;;16.30;55.41;92942.91;4998978;28;20136;-77
2023/10/27 01:30:37;;;;;;;16.08;2.85;;;;;;;16.20;54.78;92905.97;5013125;28;20042;-76
2023/10/27 01:33:03;;;;;;;6.38;2.47;;;;;;;16.37;55.23;92925.31;4998177;28;20091;-77
2023/10/27 01:35:28;;;;;;;6.95;2.15;;;;;;;16.55;54.81;92934.28;4999216;28;20057;-76
2023/10/27 01:37:53;;;;;;;10.25;2.22;;;;;;;16.58;54.31;92925.50;4996425;28;20029;-78
2023/10/27 01:40:19;;;;;;;8.98;2.97;;;;;;;16.65;54.48;92925.56;5000103;28;20029;-77
2023/10/27 01:42:45;;;;;;;7.20;3.00;;;;;;;16.56;54.80;92950.03;4999598;28;20040;-78
2023/10/27 01:45:11;;;;;;;14.07;3.45;;;;;;;16.66;54.78;92953.94;4997045;28;20053;-78
2023/10/27 01:47:36;;;;;;;8.98;2.72;;;;;;;16.61;54.86;92933.59;4999988;28;20498;-78
2023/10/27 01:50:02;;;;;;;13.40;3.50;;;;;;;16.50;55.45;92934.63;4998400;28;20026;-77
2023/10/27 01:52:28;;;;;;;10.73;2.50;;;;;;;16.56;55.13;92917.81;4999707;28;20492;-77
2023/10/27 01:54:57;;;;;;;8.00;3.08;;;;;;;16.10;56.82;92928.13;4997921;28;20030;-77
2023/10/27 01:57:23;;;;;;;17.65;4.53;;;;;;;16.12;57.05;92930.44;4986046;28;20030;-76
2023/10/27 01:59:50;;;;;;;7.63;3.28;;;;;;;15.82;58.34;92936.63;4998805;28;20510;-77
2023/10/27 02:02:16;;;;;;;7.38;2.50;;;;;;;16.05;57.45;92925.75;4997975;28;20511;-76
2023/10/27 02:04:42;;;;;;;10.43;3.08;;;;;;;16.07;57.55;92915.44;4999374;28;20057;-77
2023/10/27 02:07:08;;;;;;;9.55;2.85;;;;;;;16.25;57.30;92937.06;4999202;28;20061;-78
2023/10/27 02:09:34;;;;;;;12.43;3.70;;;;;;;16.43;56.54;92929.22;4996030;28;20042;-77
2023/10/27 02:11:59;;;;;;;13.25;2.95;;;;;;;16.28;56.58;92912.94;4999825;28;20034;-77
2023/10/27 02:14:28;;;;;;;10.07;3.40;;;;;;;15.81;58.78;92926.28;4995882;28;20084;-77
2023/10/27 02:16:54;;;;;;;10.48;3.10;;;;;;;15.66;59.03;92901.22;5014891;28;20430;-76
2023/10/27 02:19:19;;;;;;;9.63;3.03;;;;;;;15.75;58.98;92922.38;5015339;28;20026;-77
2023/10/27 02:21:46;;;;;;;5.75;2.80;;;;;;;15.64;59.00;92906.19;5019369;28;20030;-77
2023/10/27 02:24:12;;;;;;;10.38;3.17;;;;;;;15.91;58.76;92920.25;5016123;28;20495;-78
2023/10/27 02:26:37;;;;;;;12.90;3.47;;;;;;;16.10;57.82;92914.69;5017924;28;20030;-77
2023/10/27 02:29:03;;;;;;;15.52;3.10;;;;;;;16.14;57.85;92918.19;5017843;28;20770;-77
2023/10/27 02:31:28;;;;;;;6.18;3.05;;;;;;;16.13;57.27;92905.94;5015979;28;21387;-76
2023/10/27 02:33:54;;;;;;;10.48;2.75;;;;;;;16.16;57.57;92921.28;5016975;28;20086;-77
2023/10/27 02:36:19;;;;;;;7.10;3.30;;;;;;;16.10;57.18;92924.66;5017302;28;20030;-77
2023/10/27 02:38:44;;;;;;;10.07;2.75;;;;;;;15.85;57.90;92911.75;5015889;28;20075;-76
2023/10/27 02:41:11;;;;;;;9.00;3.38;;;;;;;15.92;58.14;92891.53;5017812;28;20048;-76
2023/10/27 02:43:37;;;;;;;8.07;2.28;;;;;;;16.05;57.91;92898.94;5016266;28;20648;-76
2023/10/27 02:46:04;;;;;;;9.45;3.85;;;;;;;16.01;57.67;92890.09;5000987;28;20037;-76
2023/10/27 02:48:29;;;;;;;9.50;2.88;;;;;;;15.87;58.77;92900.69;5014939;28;20042;-77
2023/10/27 02:50:55;;;;;;;10.15;3.22;;;;;;;16.08;57.87;92908.94;5018689;28;20076;-77
2023/10/27 02:53:20;;;;;;;13.77;4.07;;;;;;;15.89;58.82;92906.44;5016116;28;20047;-77
2023/10/27 02:55:46;;;;;;;11.45;3.25;;;;;;;15.93;58.83;92918.00;5001178;28;20025;-77
2023/10/27 02:58:11;;;;;;;6.20;2.45;;;;;;;16.07;57.96;92906.63;5015703;28;20833;-78
2023/10/27 03:00:43;;;;;;;9.07;3.15;;;;;;;15.96;58.48;92911.88;5017101;28;20044;-77
2023/10/27 03:03:09;;;;;;;10.02;3.13;;;;;;;16.01;58.58;92914.22;5016651;28;20033;-76
2023/10/27 03:05:35;;;;;;;10.43;3.15;;;;;;;15.78;58.35;92886.81;5016124;28;20330;-78
2023/10/27 03:08:00;;;;;;;14.48;3.63;;;;;;;15.57;59.96;92899.97;5018162;28;20630;-77
2023/10/27 03:10:26;;;;;;;9.50;3.22;;;;;;;15.72;59.01;92890.94;5015978;28;20409;-77
2023/10/27 03:12:51;;;;;;;7.90;3.80;;;;;;;15.71;59.40;92894.75;5000038;28;20037;-76
2023/10/27 03:15:16;;;;;;;7.63;3.33;;;;;;;16.00;58.57;92918.03;5018013;28;20040;-77
2023/10/27 03:17:42;;;;;;;10.15;3.53;;;;;;;16.04;58.24;92923.44;5015218;28;20044;-77
2023/10/27 03:20:08;;;;;;;15.68;4.63;;;;;;;15.82;59.34;92891.06;5018351;28;20518;-77
2023/10/27 03:22:33;;;;;;;12.82;3.40;;;;;;;15.50;60.44;92894.53;5015256;28;20684;-77
2023/10/27 03:24:59;;;;;;;10.45;3.45;;;;;;;15.82;59.32;92914.41;5018267;28;20041;-77
2023/10/27 03:27:25;;;;;;;13.18;4.40;;;;;;;15.86;58.64;92897.22;4994688;28;20057;-77
2023/10/27 03:29:51;;;;;;;14.27;3.80;;;;;;;15.89;58.66;92909.88;5014751;28;20037;-77
2023/10/27 03:32:16;;;;;;;17.00;3.92;;;;;;;15.85;59.12;92911.75;4999076;28;20036;-76
2023/10/27 03:34:43;;;;;;;9.70;4.10;;;;;;;15.96;58.67;92919.94;5017002;28;20017;-77
2023/10/27 03:37:09;;;;;;;8.70;3.55;;;;;;;15.74;58.88;92878.72;5015643;28;20528;-76
2023/10/27 03:39:36;;;;;;;9.30;3.00;;;;;;;15.88;58.63;92900.31;5017524;28;20044;-77
2023/10/27 03:42:01;;;;;;;8.90;3.53;;;;;;;16.00;58.58;92901.97;5015143;28;20057;-76
2023/10/27 03:44:26;;;;;;;7.43;3.72;;;;;;;15.99;58.38;92903.09;5017015;28;20426;-76
2023/10/27 03:46:52;;;;;;;10.48;3.63;;;;;;;15.53;59.54;92875.03;5014827;28;20025;-76
2023/10/27 03:49:18;;;;;;;8.43;2.80;;;;;;;15.74;59.71;92904.78;5017093;28;20040;-75
2023/10/27 03:51:43;;;;;;;11.90;3.90;;;;;;;15.87;58.79;92881.91;5013785;28;20411;-77
2023/10/27 03:54:08;;;;;;;9.27;4.03;;;;;;;15.99;58.51;92887.00;5017084;28;20065;-76
2023/10/27 03:56:34;;;;;;;9.68;3.70;;;;;;;15.78;58.21;92835.88;4997090;28;20087;-76
2023/10/27 03:58:59;;;;;;;11.30;3.85;;;;;;;16.02;58.07;92877.47;5017886;28;20124;-76
2023/10/27 04:01:27;;;;;;;9.77;2.90;;;;;;;16.13;57.82;92878.34;4998646;28;20025;-76
2023/10/27 04:03:54;;;;;;;9.18;3.15;;;;;;;16.14;57.82;92886.00;5016533;28;20037;-77
2023/10/27 04:06:20;;;;;;;13.85;4.72;;;;;;;15.90;58.80;92879.25;5013785;28;20474;-76
2023/10/27 04:08:46;;;;;;;8.93;2.95;;;;;;;15.97;58.35;92859.03;5015284;28;20507;-77
2023/10/27 04:11:12;;;;;;;12.13;3.20;;;;;;;16.02;58.14;92854.09;5015066;28;20087;-76
2023/10/27 04:13:37;;;;;;;5.80;2.53;;;;;;;16.09;57.83;92853.38;5016718;28;20111;-77
2023/10/27 04:16:03;;;;;;;8.35;4.10;;;;;;;15.68;59.14;92837.31;5015726;28;20056;-77
2023/10/27 04:18:28;;;;;;;7.07;2.42;;;;;;;15.88;58.33;92832.53;4996506;28;20692;-76
2023/10/27 04:20:54;;;;;;;8.55;2.92;;;;;;;15.88;58.88;92835.19;4996788;28;20884;-76
2023/10/27 04:23:19;;;;;;;9.88;2.95;;;;;;;15.75;59.29;92825.88;5016829;28;20025;-76
2023/10/27 04:25:45;;;;;;;7.15;2.90;;;;;;;16.06;58.59;92830.75;4997059;28;20090;-76
2023/10/27 04:28:10;;;;;;;5.40;2.65;;;;;;;15.70;58.94;92788.69;5014075;28;20026;-77
2023/10/27 04:30:36;;;;;;;7.40;3.10;;;;;;;15.75;58.89;92815.16;5014888;28;20033;-75
2023/10/27 04:33:04;;;;;;;8.27;2.83;;;;;;;15.89;58.73;92826.00;5014778;28;20037;-76
2023/10/27 04:35:29;;;;;;;7.82;3.30;;;;;;;15.98;58.61;92839.91;5013806;28;20141;-76
2023/10/27 04:37:56;;;;;;;8.90;3.78;;;;;;;16.01;58.16;92831.09;5016992;28;20070;-76
2023/10/27 04:40:22;;;;;;;7.68;3.85;;;;;;;16.07;57.90;92835.00;5014635;28;20022;-76
2023/10/27 04:42:48;;;;;;;9.35;3.17;;;;;;;16.08;57.71;92836.53;5016969;28;20450;-75
2023/10/27 04:45:13;;;;;;;9.30;2.47;;;;;;;16.00;57.93;92845.66;5000924;28;20045;-76
2023/10/27 04:47:39;;;;;;;8.52;3.17;;;;;;;16.08;57.72;92849.94;5004041;28;20029;-75
2023/10/27 04:50:05;;;;;;;9.48;2.97;;;;;;;15.91;58.59;92850.53;5016492;28;20381;-76
2023/10/27 04:52:31;;;;;;;5.45;2.85;;;;;;;16.01;58.22;92855.22;5019272;28;20026;-77
2023/10/27 04:54:56;;;;;;;10.23;3.38;;;;;;;15.91;57.85;92845.19;5018074;28;20084;-75
2023/10/27 04:57:22;;;;;;;8.15;2.85;;;;;;;15.94;58.10;92860.53;5018275;28;20598;-76
2023/10/27 04:59:47;;;;;;;7.15;2.60;;;;;;;15.86;58.31;92848.97;5017156;28;20037;-77
2023/10/27 05:02:13;;;;;;;10.00;3.58;;;;;;;15.85;58.09;92841.28;5024588;28;20030;-78
2023/10/27 05:04:38;;;;;;;10.10;2.67;;;;;;;15.84;58.20;92829.03;5024190;28;20128;-77
2023/10/27 05:07:05;;;;;;;11.75;3.55;;;;;;;15.99;58.28;92841.41;5024644;28;20045;-79
2023/10/27 05:09:31;;;;;;;18.15;3.47;;;;;;;15.89;58.13;92829.44;5001801;28;20048;-78
2023/10/27 05:11:56;;;;;;;11.93;3.50;;;;;;;15.99;58.49;92846.78;5019298;28;20717;-78
2023/10/27 05:14:22;;;;;;;8.70;3.28;;;;;;;16.05;58.19;92845.31;5019543;28;20041;-77
2023/10/27 05:16:47;;;;;;;9.98;3.75;;;;;;;15.95;58.31;92816.47;5023750;28;20041;-76
2023/10/27 05:19:13;;;;;;;9.13;3.47;;;;;;;16.05;57.86;92817.72;5018419;28;20570;-77
2023/10/27 05:21:38;;;;;;;8.32;3.67;;;;;;;15.96;58.22;92810.00;4998567;28;20034;-77
2023/10/27 05:24:05;;;;;;;10.73;3.15;;;;;;;15.93;58.53;92813.41;5017808;28;20602;-77
2023/10/27 05:26:30;;;;;;;8.77;3.33;;;;;;;15.99;58.67;92819.97;5018244;28;20033;-78
2023/10/27 05:28:56;;;;;;;13.32;2.92;;;;;;;16.05;58.50;92818.47;5018151;28;20018;-76
2023/10/27 05:31:22;;;;;;;10.95;3.13;;;;;;;16.11;58.41;92832.34;5018168;28;20060;-75
2023/10/27 05:33:48;;;;;;;9.27;3.20;;;;;;;16.01;58.49;92809.66;5000671;28;20652;-76
2023/10/27 05:36:13;;;;;;;8.68;2.45;;;;;;;16.09;58.13;92819.28;5017835;28;20042;-77
2023/10/27 05:38:38;;;;;;;11.05;3.15;;;;;;;15.95;58.75;92816.47;5012452;28;20034;-76
2023/10/27 05:41:04;;;;;;;7.50;3.38;;;;;;;15.97;58.69;92824.94;5018851;28;20026;-77
2023/10/27 05:43:29;;;;;;;6.38;2.70;;;;;;;15.89;59.34;92823.31;5017841;28;20353;-76
2023/10/27 05:45:55;;;;;;;11.88;3.25;;;;;;;16.07;58.38;92829.63;5018035;28;20034;-76
2023/10/27 05:48:20;;;;;;;8.82;1.98;;;;;;;16.17;58.61;92842.34;5019686;28;20566;-76
2023/10/27 05:50:46;;;;;;;10.43;2.88;;;;;;;16.25;58.25;92833.22;5016078;28;20039;-77
2023/10/27 05:53:11;;;;;;;10.02;2.92;;;;;;;16.33;57.72;92842.88;5018585;28;20037;-77
2023/10/27 05:55:37;;;;;;;8.60;3.28;;;;;;;16.51;57.55;92850.31;5018227;28;20032;-77
2023/10/27 05:58:02;;;;;;;11.80;3.75;;;;;;;16.31;57.05;92826.41;5016464;28;20037;-77
2023/10/27 06:00:29;;;;;;;10.50;4.05;;;;;;;16.39;57.61;92869.38;5015418;28;20128;-75
2023/10/27 06:02:55;;;;;;;10.05;4.00;;;;;;;16.35;58.02;92863.19;5012833;28;20150;-76
2023/10/27 06:05:21;;;;;;;10.80;3.33;;;;;;;16.49;57.77;92874.03;4985953;28;20053;-76
2023/10/27 06:07:47;;;;;;;12.20;3.45;;;;;;;16.55;57.51;92867.19;5007591;28;20021;-76
2023/10/27 06:10:13;;;;;;;9.57;3.20;;;;;;;16.66;57.29;92878.78;5006337;28;20067;-76
2023/10/27 06:12:38;;;;;;;10.73;4.72;;;;;;;16.77;57.32;92879.59;4994754;28;20129;-75
2023/10/27 06:15:04;;;;;;;6.85;2.95;;;;;;;16.50;58.47;92857.56;4987683;28;20212;-76
2023/10/27 06:17:30;;;;;;;9.52;3.80;;;;;;;16.58;58.25;92861.06;4983841;28;21050;-77
2023/10/27 06:19:55;;;;;;;11.98;3.60;;;;;;;16.73;58.18;92868.06;4979669;28;20033;-76
2023/10/27 06:22:21;;;;;;;15.15;4.13;;;;;;;16.84;57.80;92873.53;4995590;28;20021;-76
2023/10/27 06:24:50;;;;;;;12.85;3.78;;;;;;;16.70;57.28;92829.34;4997140;28;20045;-77
2023/10/27 06:27:15;;;;;;;11.73;3.22;;;;;;;17.01;55.55;92865.56;4995314;28;20034;-77
2023/10/27 06:29:40;;;;;;;8.90;3.20;;;;;;;17.00;55.54;92890.91;4998151;28;20030;-76
2023/10/27 06:32:06;;;;;;;7.68;2.50;;;;;;;16.89;56.41;92865.13;4995803;28;20101;-76
2023/10/27 06:34:32;;;;;;;8.40;3.17;;;;;;;16.78;56.51;92867.72;4998165;28;20030;-77
2023/10/27 06:36:58;;;;;;;13.77;3.25;;;;;;;16.81;56.21;92856.25;4994968;28;20034;-75
2023/10/27 06:39:24;;;;;;;6.65;2.42;;;;;;;17.00;56.00;92871.31;4996227;28;20508;-77
2023/10/27 06:41:50;;;;;;;14.30;2.90;;;;;;;16.91;55.77;92858.25;4994395;28;20045;-77
2023/10/27 06:44:15;;;;;;;15.02;3.35;;;;;;;16.95;55.61;92837.53;4996871;28;20472;-77
2023/10/27 06:46:41;;;;;;;11.18;3.58;;;;;;;16.76;55.80;92843.19;4997071;28;20544;-77
2023/10/27 06:49:06;;;;;;;14.52;3.30;;;;;;;16.85;56.00;92842.84;4997510;28;20046;-77
2023/10/27 06:51:32;;;;;;;17.33;3.83;;;;;;;16.53;56.55;92837.25;4996900;28;20026;-76
2023/10/27 06:53:57;;;;;;;10.30;3.92;;;;;;;16.78;56.78;92881.16;4993922;28;20332;-77
2023/10/27 06:56:22;;;;;;;10.75;3.75;;;;;;;16.90;56.69;92870.13;4998696;28;20109;-77
2023/10/27 06:58:48;;;;;;;9.60;3.47;;;;;;;16.88;56.56;92867.03;4996216;28;20029;-76
2023/10/27 07:01:13;;;;;;;15.18;3.60;;;;;;;16.67;57.14;92848.88;4997505;28;20041;-77
2023/10/27 07:03:38;;;;;;;20.13;5.53;;;;;;;16.75;56.61;92845.09;4995971;28;20985;-77
2023/10/27 07:06:04;;;;;;;18.92;6.10;;;;;;;17.02;56.17;92869.78;4995849;28;20103;-77
2023/10/27 07:08:33;;;;;;;12.18;3.78;;;;;;;17.07;56.42;92852.53;5012672;28;20524;-76
2023/10/27 07:10:59;;;;;;;11.38;4.20;;;;;;;16.83;56.31;92867.38;4997686;28;20369;-76
2023/10/27 07:13:27;;;;;;;11.32;3.72;;;;;;;16.91;56.10;92857.47;4991324;28;20575;-78
2023/10/27 07:15:53;;;;;;;12.43;4.22;;;;;;;16.46;56.74;92853.34;4999256;28;20157;-76
2023/10/27 07:18:19;;;;;;;10.90;3.47;;;;;;;16.70;56.07;92868.84;5016382;28;20116;-76
2023/10/27 07:20:46;;;;;;;9.55;3.88;;;;;;;16.63;56.01;92853.44;4997584;28;20049;-77
2023/10/27 07:23:11;;;;;;;12.23;4.15;;;;;;;16.47;55.46;92825.34;5014449;28;20052;-78
2023/10/27 07:25:37;;;;;;;11.07;3.03;;;;;;;16.69;55.76;92857.31;5015116;28;20136;-76
2023/10/27 07:28:02;;;;;;;10.77;3.25;;;;;;;16.79;55.63;92860.44;5016472;28;20033;-76
2023/10/27 07:30:28;;;;;;;9.88;2.58;;;;;;;17.05;54.90;92861.00;5013832;28;20038;-77
2023/10/27 07:32:54;;;;;;;8.20;2.88;;;;;;;17.21;54.56;92859.94;5015169;28;20069;-77
2023/10/27 07:35:20;;;;;;;8.95;3.65;;;;;;;17.24;54.52;92869.94;5015458;28;20033;-78
2023/10/27 07:37:45;;;;;;;6.40;3.05;;;;;;;16.91;54.60;92842.13;5016394;28;20179;-76
2023/10/27 07:40:11;;;;;;;9.05;3.55;;;;;;;16.56;54.96;92823.13;5011434;28;20048;-76
2023/10/27 07:42:36;;;;;;;18.67;3.28;;;;;;;16.98;54.98;92868.22;5003807;28;20045;-76
2023/10/27 07:45:05;;;;;;;6.22;2.70;;;;;;;17.01;54.84;92852.13;5007202;28;20041;-76
2023/10/27 07:47:31;;;;;;;9.65;3.58;;;;;;;16.83;54.86;92851.25;5006554;28;20364;-76
2023/10/27 07:49:56;;;;;;;13.10;3.70;;;;;;;16.88;55.46;92875.09;5008509;28;20025;-75
2023/10/27 07:52:21;;;;;;;8.73;3.35;;;;;;;16.89;55.43;92854.38;5007780;28;20104;-77
2023/10/27 07:54:47;;;;;;;12.65;4.00;;;;;;;16.97;55.01;92872.06;5005549;28;20060;-77
2023/10/27 07:57:13;;;;;;;14.93;3.80;;;;;;;17.03;55.55;92875.94;5006938;28;20520;-76
2023/10/27 07:59:38;;;;;;;12.68;3.90;;;;;;;16.83;55.35;92856.63;4988864;28;20323;-77
2023/10/27 08:02:04;;;;;;;8.88;3.75;;;;;;;16.26;56.56;92856.22;5009037;28;20037;-77
2023/10/27 08:04:32;;;;;;;10.70;3.53;;;;;;;16.11;57.58;92826.97;5004197;28;20392;-77
2023/10/27 08:06:58;;;;;;;10.07;3.80;;;;;;;16.03;58.13;92831.50;5006520;28;20033;-76
2023/10/27 08:09:23;;;;;;;7.90;3.00;;;;;;;16.29;57.01;92834.00;4989457;28;20043;-78
2023/10/27 08:11:49;;;;;;;7.63;3.35;;;;;;;16.30;56.19;92814.13;4989703;28;20128;-78
2023/10/27 08:14:16;;;;;;;11.63;3.15;;;;;;;15.67;58.21;92810.88;5004995;28;20703;-76
2023/10/27 08:16:42;;;;;;;10.18;2.53;;;;;;;15.54;57.74;92809.59;5011512;28;20037;-76
2023/10/27 08:19:08;;;;;;;8.27;3.97;;;;;;;15.65;59.50;92837.25;5009528;28;20052;-77
2023/10/27 08:21:34;;;;;;;11.43;4.50;;;;;;;15.68;59.34;92825.81;5011857;28;20045;-77
2023/10/27 08:23:59;;;;;;;9.98;3.53;;;;;;;15.52;57.11;92788.53;5013404;28;20049;-76
2023/10/27 08:26:24;;;;;;;9.13;3.38;;;;;;;15.64;58.85;92819.66;5013597;28;20080;-77
2023/10/27 08:28:50;;;;;;;18.73;4.05;;;;;;;15.74;59.61;92830.47;5007492;28;20044;-77
2023/10/27 08:31:16;;;;;;;18.17;4.75;;;;;;;15.78;59.12;92817.09;5009532;28;20227;-77
2023/10/27 08:33:42;;;;;;;6.00;3.55;;;;;;;15.91;59.43;92823.72;4994725;28;20459;-77
2023/10/27 08:36:08;;;;;;;15.88;5.10;;;;;;;16.11;59.24;92822.38;4996017;28;20053;-77
2023/10/27 08:38:33;;;;;;;11.73;3.78;;;;;;;16.35;59.36;92820.28;5001611;28;20111;-77
2023/10/27 08:40:59;;;;;;;9.35;3.38;;;;;;;16.53;57.72;92826.53;5013319;28;20039;-77
2023/10/27 08:43:26;;;;;;;11.00;4.25;;;;;;;16.45;58.03;92835.69;5015747;28;20879;-76
2023/10/27 08:45:52;;;;;;;16.95;5.13;;;;;;;16.21;57.55;92828.97;5008864;28;20041;-76
2023/10/27 08:48:18;;;;;;;13.63;4.43;;;;;;;16.43;58.06;92827.25;5002081;28;20215;-75
2023/10/27 08:50:45;;;;;;;11.48;4.97;;;;;;;16.81;56.64;92823.25;4981506;28;20049;-78
2023/10/27 08:53:20;;;;;;;15.18;4.68;;;;;;;16.85;56.78;92814.06;4998897;28;20022;-76
2023/10/27 08:55:49;;;;;;;10.93;3.08;;;;;;;17.26;55.63;92830.03;4970932;28;20444;-77
2023/10/27 08:58:14;;;;;;;9.02;3.55;;;;;;;17.35;53.54;92825.84;5004531;28;20065;-77
2023/10/27 09:00:40;;;;;;;9.90;2.40;;;;;;;17.11;52.16;92813.81;5004600;28;20464;-77
2023/10/27 09:03:17;;;;;;;6.60;1.80;;;;;;;16.98;51.76;92804.53;5015181;28;20051;-78
2023/10/27 09:05:44;;;;;;;9.45;2.22;;;;;;;16.92;52.68;92803.34;5002621;28;20048;-78
2023/10/27 09:08:10;;;;;;;10.00;1.55;;;;;;;17.15;52.40;92787.78;5003507;28;20041;-77
2023/10/27 09:10:36;;;;;;;8.18;3.53;;;;;;;17.27;52.50;92793.94;4999755;28;20061;-77
2023/10/27 09:13:02;;;;;;;5.72;1.30;;;;;;;17.45;51.17;92808.97;4992121;28;20104;-77
2023/10/27 09:15:40;;;;;;;7.47;2.17;;;;;;;17.64;51.93;92794.44;5012364;28;20034;-77
2023/10/27 09:18:06;;;;;;;4.75;1.33;;;;;;;17.66;50.15;92794.03;5011834;28;20052;-77
2023/10/27 09:20:31;;;;;;;6.10;1.40;;;;;;;17.68;50.44;92781.75;5001984;28;20033;-77
2023/10/27 09:23:02;;;;;;;8.52;2.10;;;;;;;17.64;50.93;92764.09;5015289;28;20026;-76
2023/10/27 09:25:32;;;;;;;4.45;1.90;;;;;;;17.70;51.13;92767.94;5015419;28;20032;-77
2023/10/27 09:27:59;;;;;;;5.57;2.10;;;;;;;17.91;50.38;92757.97;5010966;28;20076;-77
2023/10/27 09:30:38;;;;;;;6.35;1.45;;;;;;;18.14;49.47;92778.38;5018797;28;20080;-77
2023/10/27 09:33:19;;;;;;;8.85;1.65;;;;;;;17.59;48.46;92776.00;5018496;28;20041;-77
2023/10/27 09:35:46;;;;;;;8.32;1.92;;;;;;;17.86;48.93;92754.88;5019156;28;20133;-77
2023/10/27 09:38:13;;;;;;;5.85;1.83;;;;;;;17.51;50.03;92756.38;5015641;28;20128;-77
2023/10/27 09:40:40;;;;;;;7.10;1.98;;;;;;;17.68;49.94;92743.34;5015399;28;20071;-77
2023/10/27 09:43:14;;;;;;;4.90;1.23;;;;;;;17.87;49.62;92738.38;5017553;28;20041;-78
2023/10/27 09:45:54;;;;;;;5.95;1.30;;;;;;;17.53;48.53;92719.13;5016638;28;20150;-77
2023/10/27 09:48:25;;;;;;;7.05;1.77;;;;;;;17.60;47.87;92750.63;5016063;28;20038;-78
2023/10/27 09:50:59;;;;;;;5.18;1.60;;;;;;;17.47;48.49;92727.94;5016955;28;20041;-78
2023/10/27 09:53:28;;;;;;;9.48;1.80;;;;;;;17.93;48.49;92731.47;5016110;28;20033;-77
2023/10/27 09:55:56;;;;;;;1.98;1.02;;;;;;;17.56;46.66;92741.78;5017108;28;20500;-77
2023/10/27 09:58:23;;;;;;;3.08;1.42;;;;;;;17.66;47.46;92740.25;5019830;28;20108;-77
2023/10/27 10:00:49;;;;;;;6.68;1.63;;;;;;;17.86;47.58;92711.84;5016300;28;20049;-76
2023/10/27 10:03:16;;;;;;;5.40;1.20;;;;;;;17.67;49.40;92721.06;5000206;28;20046;-77
2023/10/27 10:06:07;;;;;;;4.35;1.10;;;;;;;17.97;46.86;92734.94;5016508;28;20084;-77
2023/10/27 10:08:33;;;;;;;20.50;1.75;;;;;;;18.05;46.41;92719.53;5014397;28;20104;-77
2023/10/27 10:11:13;;;;;;;5.75;1.08;;;;;;;18.07;46.12;92716.47;5019160;28;20657;-77
2023/10/27 10:13:38;;;;;;;7.95;1.42;;;;;;;18.01;46.17;92727.63;5014532;28;20938;-77
2023/10/27 10:16:06;;;;;;;4.30;1.23;;;;;;;17.92;46.24;92713.78;5018432;28;20057;-78
2023/10/27 10:18:34;;;;;;;3.03;1.17;;;;;;;18.27;46.07;92744.53;5016475;28;20037;-78
2023/10/27 10:21:00;;;;;;;2.75;0.93;;;;;;;18.36;46.04;92755.66;5017829;28;20774;-76
2023/10/27 10:23:38;;;;;;;5.32;0.90;;;;;;;18.29;45.93;92753.72;5017579;28;20059;-77
2023/10/27 10:26:04;;;;;;;4.82;1.00;;;;;;;18.14;46.00;92732.63;5018560;28;20034;-77
2023/10/27 10:28:33;;;;;;;3.85;1.10;;;;;;;17.91;46.80;92749.88;5017337;28;20087;-77
2023/10/27 10:31:08;;;;;;;11.05;2.38;;;;;;;17.97;45.66;92681.13;5019053;28;20030;-77
2023/10/27 10:33:34;;;;;;;4.78;1.20;;;;;;;18.19;45.74;92710.69;5013972;28;20111;-76
2023/10/27 10:36:18;;;;;;;11.65;1.42;;;;;;;18.20;45.11;92714.91;5001248;28;20041;-77
2023/10/27 10:38:55;;;;;;;2.92;0.90;;;;;;;18.24;45.63;92713.75;5016377;28;20088;-77
2023/10/27 10:41:21;;;;;;;2.58;0.95;;;;;;;18.33;45.06;92697.22;4997925;28;20124;-77
2023/10/27 10:44:13;;;;;;;3.53;1.00;;;;;;;18.46;44.85;92728.72;5018554;28;20028;-77
2023/10/27 10:46:39;;;;;;;6.63;0.98;;;;;;;18.51;44.72;92706.03;4995182;28;20475;-78
2023/10/27 10:49:04;;;;;;;5.05;1.02;;;;;;;18.52;44.73;92698.72;4998389;28;20046;-77
2023/10/27 10:51:30;;;;;;;3.42;1.00;;;;;;;18.65;44.08;92710.59;4996881;28;20097;-77
2023/10/27 10:53:56;;;;;;;3.13;0.90;;;;;;;18.66;44.91;92696.75;4997645;28;20065;-77
2023/10/27 10:56:23;;;;;;;3.13;0.80;;;;;;;18.56;44.11;92678.69;4997334;28;20165;-77
2023/10/27 10:58:48;;;;;;;3.47;0.88;;;;;;;18.65;45.20;92691.75;4996249;28;20032;-78
2023/10/27 11:01:18;;;;;;;2.00;0.85;;;;;;;18.71;43.86;92700.97;4991542;28;20034;-77
2023/10/27 11:03:52;;;;;;;2.80;0.88;;;;;;;18.68;44.70;92694.41;4993598;28;20030;-77
2023/10/27 11:06:19;;;;;;;2.28;0.90;;;;;;;18.61;44.82;92707.91;4990477;28;20197;-77
2023/10/27 11:08:45;;;;;;;5.63;1.10;;;;;;;18.78;44.93;92695.56;4998084;28;20591;-77
2023/10/27 11:11:16;;;;;;;1.30;0.70;;;;;;;18.88;45.10;92700.91;4995600;28;23115;-76
2023/10/27 11:13:43;;;;;;;3.17;0.95;;;;;;;19.03;45.40;92679.28;4996192;28;20018;-78
2023/10/27 11:16:15;;;;;;;3.08;1.00;;;;;;;18.94;43.84;92687.03;4997903;28;20938;-77
2023/10/27 11:18:46;;;;;;;4.40;1.00;;;;;;;19.11;44.36;92692.34;4995880;28;20810;-76
2023/10/27 11:21:22;;;;;;;3.72;1.00;;;;;;;19.15;43.58;92673.47;5000895;28;20042;-77
2023/10/27 11:23:49;;;;;;;6.85;1.30;;;;;;;18.92;44.13;92705.53;4986886;28;20128;-77
2023/10/27 11:26:16;;;;;;;7.22;1.20;;;;;;;19.01;44.40;92703.19;4984579;28;20052;-77